createdAt,value
2017-10-30T00:02:14.671Z,61.90
2017-10-30T00:04:42.133Z,61.90
2017-10-30T00:07:09.603Z,61.90
2017-10-30T00:09:37.073Z,61.90
2017-10-30T00:12:04.563Z,61.90
2017-10-30T00:14:32.033Z,62.00
2017-10-30T00:16:59.475Z,62.10
2017-10-30T00:19:26.946Z,62.20
2017-10-30T00:21:54.497Z,62.20
2017-10-30T00:24:21.958Z,62.30
2017-10-30T00:26:49.425Z,62.30
2017-10-30T00:29:16.901Z,62.60
2017-10-30T00:31:44.342Z,62.50
2017-10-30T00:34:11.802Z,63.10
2017-10-30T00:36:40.016Z,63.10
2017-10-30T00:39:08.261Z,62.50
2017-10-30T00:41:35.719Z,62.40
2017-10-30T00:44:03.166Z,62.50
2017-10-30T00:46:30.621Z,62.40
2017-10-30T00:48:58.835Z,62.80
2017-10-30T00:51:26.303Z,62.60
2017-10-30T00:53:54.671Z,62.50
2017-10-30T00:56:22.900Z,62.70
2017-10-30T00:58:50.462Z,62.70
2017-10-30T01:01:18.693Z,63.10
2017-10-30T01:03:46.147Z,62.80
2017-10-30T01:06:13.602Z,62.80
2017-10-30T01:08:41.821Z,62.90
2017-10-30T01:11:09.278Z,62.90
2017-10-30T01:13:37.493Z,63.90
2017-10-30T01:16:04.946Z,63.00
2017-10-30T01:18:33.174Z,62.90
2017-10-30T01:21:00.642Z,62.90
2017-10-30T01:23:28.097Z,63.10
2017-10-30T01:25:55.545Z,63.10
2017-10-30T01:28:23.010Z,63.00
2017-10-30T01:30:50.455Z,62.90
2017-10-30T01:33:17.909Z,63.10
2017-10-30T01:35:45.367Z,63.20
2017-10-30T01:38:12.826Z,63.20
2017-10-30T01:40:40.279Z,63.20
2017-10-30T01:43:07.743Z,63.10
2017-10-30T01:45:35.193Z,63.00
2017-10-30T01:48:02.649Z,63.10
2017-10-30T01:50:30.118Z,63.30
2017-10-30T01:52:57.575Z,63.30
2017-10-30T01:55:25.031Z,63.30
2017-10-30T01:57:52.489Z,63.20
2017-10-30T02:00:19.937Z,63.10
2017-10-30T02:02:47.410Z,63.30
2017-10-30T02:05:14.903Z,63.30
2017-10-30T02:07:43.124Z,63.40
2017-10-30T02:10:10.590Z,63.30
2017-10-30T02:12:38.062Z,63.30
2017-10-30T02:15:05.510Z,63.30
2017-10-30T02:17:32.968Z,63.30
2017-10-30T02:20:00.427Z,63.30
2017-10-30T02:22:27.881Z,63.30
2017-10-30T02:24:55.332Z,63.30
2017-10-30T02:27:22.787Z,63.40
2017-10-30T02:29:50.243Z,63.60
2017-10-30T02:32:17.707Z,63.70
2017-10-30T02:34:45.153Z,63.40
2017-10-30T02:37:12.622Z,63.60
2017-10-30T02:39:40.068Z,63.70
2017-10-30T02:42:07.531Z,63.70
2017-10-30T02:44:34.975Z,63.60
2017-10-30T02:47:02.422Z,63.60
2017-10-30T02:49:29.866Z,64.30
2017-10-30T02:51:57.325Z,63.70
2017-10-30T02:54:24.771Z,63.70
2017-10-30T02:56:52.236Z,63.60
2017-10-30T02:59:19.703Z,63.70
2017-10-30T03:01:47.160Z,63.60
2017-10-30T03:04:15.374Z,63.80
2017-10-30T03:06:42.865Z,63.80
2017-10-30T03:09:10.318Z,63.60
2017-10-30T03:11:37.783Z,63.70
2017-10-30T03:14:05.242Z,63.80
2017-10-30T03:16:32.693Z,63.80
2017-10-30T03:19:00.155Z,63.50
2017-10-30T03:21:27.590Z,63.60
2017-10-30T03:23:55.045Z,63.50
2017-10-30T03:26:22.504Z,63.60
2017-10-30T03:28:49.974Z,63.50
2017-10-30T03:31:17.493Z,63.80
2017-10-30T03:33:44.972Z,63.80
2017-10-30T03:36:12.410Z,63.60
2017-10-30T03:38:39.864Z,63.60
2017-10-30T03:41:07.311Z,63.60
2017-10-30T03:43:34.764Z,64.10
2017-10-30T03:46:02.205Z,63.50
2017-10-30T03:48:30.427Z,63.40
2017-10-30T03:50:57.865Z,63.40
2017-10-30T03:53:25.326Z,63.50
2017-10-30T03:55:52.781Z,63.80
2017-10-30T03:58:20.256Z,63.70
2017-10-30T04:00:49.611Z,63.90
2017-10-30T04:03:17.886Z,64.00
2017-10-30T04:05:46.086Z,63.80
2017-10-30T04:08:13.542Z,63.80
2017-10-30T04:10:40.986Z,63.90
2017-10-30T04:13:08.440Z,63.80
2017-10-30T04:15:35.885Z,64.00
2017-10-30T04:18:04.130Z,64.30
2017-10-30T04:20:31.586Z,64.10
2017-10-30T04:23:00.541Z,64.10
2017-10-30T04:25:28.005Z,64.10
2017-10-30T04:27:55.454Z,64.30
2017-10-30T04:30:22.939Z,64.30
2017-10-30T04:32:51.150Z,64.90
2017-10-30T04:35:18.606Z,64.40
2017-10-30T04:37:46.082Z,64.30
2017-10-30T04:40:13.546Z,64.20
2017-10-30T04:42:40.986Z,64.30
2017-10-30T04:45:08.439Z,64.20
2017-10-30T04:47:36.659Z,64.10
2017-10-30T04:50:04.113Z,64.10
2017-10-30T04:52:31.574Z,64.20
2017-10-30T04:54:59.025Z,64.00
2017-10-30T04:57:26.510Z,64.10
2017-10-30T04:59:53.975Z,64.20
2017-10-30T05:02:21.427Z,64.20
2017-10-30T05:04:48.897Z,64.10
2017-10-30T05:07:16.366Z,64.20
2017-10-30T05:09:43.818Z,64.30
2017-10-30T05:12:11.281Z,64.30
2017-10-30T05:14:39.530Z,64.10
2017-10-30T05:17:07.007Z,64.00
2017-10-30T05:19:35.969Z,64.00
2017-10-30T05:22:03.419Z,64.00
2017-10-30T05:24:30.883Z,64.10
2017-10-30T05:26:58.342Z,64.10
2017-10-30T05:29:25.818Z,63.90
2017-10-30T05:31:53.270Z,64.10
2017-10-30T05:34:20.721Z,64.10
2017-10-30T05:36:48.197Z,64.10
2017-10-30T05:39:17.159Z,64.10
2017-10-30T05:41:44.627Z,64.10
2017-10-30T05:44:12.840Z,64.00
2017-10-30T05:46:41.074Z,63.90
2017-10-30T05:49:08.526Z,63.80
2017-10-30T05:51:35.978Z,63.60
2017-10-30T05:54:03.421Z,63.60
2017-10-30T05:56:30.901Z,63.70
2017-10-30T05:58:58.351Z,63.70
2017-10-30T06:01:25.810Z,63.80
2017-10-30T06:03:53.262Z,63.60
2017-10-30T06:06:20.734Z,63.80
2017-10-30T06:08:48.186Z,63.60
2017-10-30T06:11:15.645Z,63.60
2017-10-30T06:13:43.106Z,63.60
2017-10-30T06:16:10.550Z,63.70
2017-10-30T06:18:38.042Z,63.60
2017-10-30T06:21:07.005Z,63.90
2017-10-30T06:23:34.506Z,63.80
2017-10-30T06:26:01.962Z,63.70
2017-10-30T06:28:30.197Z,63.50
2017-10-30T06:30:57.668Z,63.30
2017-10-30T06:33:25.891Z,63.80
2017-10-30T06:35:53.392Z,63.80
2017-10-30T06:38:20.852Z,63.80
2017-10-30T06:40:48.307Z,63.90
2017-10-30T06:43:15.771Z,64.10
2017-10-30T06:45:43.243Z,64.00
2017-10-30T06:48:11.494Z,63.90
2017-10-30T06:50:38.979Z,64.60
2017-10-30T06:53:06.466Z,64.10
2017-10-30T06:55:34.691Z,64.10
2017-10-30T06:58:02.196Z,64.00
2017-10-30T07:00:30.411Z,64.00
2017-10-30T07:02:57.912Z,63.90
2017-10-30T07:05:25.369Z,63.90
2017-10-30T07:07:52.813Z,64.00
2017-10-30T07:10:20.284Z,64.10
2017-10-30T07:12:47.758Z,64.10
2017-10-30T07:15:15.227Z,64.00
2017-10-30T07:17:42.671Z,64.00
2017-10-30T07:20:11.010Z,64.20
2017-10-30T07:22:38.590Z,64.10
2017-10-30T07:25:06.853Z,64.00
2017-10-30T07:27:34.290Z,64.00
2017-10-30T07:30:01.759Z,63.60
2017-10-30T07:32:29.226Z,63.20
2017-10-30T07:34:56.669Z,63.00
2017-10-30T07:37:24.130Z,62.40
2017-10-30T07:39:51.594Z,62.10
2017-10-30T07:42:19.042Z,62.30
2017-10-30T07:44:46.521Z,61.90
2017-10-30T07:47:13.998Z,61.60
2017-10-30T07:49:41.455Z,62.20
2017-10-30T07:52:08.903Z,61.30
2017-10-30T07:54:36.426Z,61.40
2017-10-30T07:57:03.891Z,61.20
2017-10-30T07:59:31.350Z,61.10
2017-10-30T08:01:58.812Z,61.20
2017-10-30T08:04:26.257Z,60.50
2017-10-30T08:06:53.709Z,61.20
2017-10-30T08:09:21.202Z,60.60
2017-10-30T08:11:48.659Z,60.10
2017-10-30T08:14:16.118Z,60.70
2017-10-30T08:16:44.341Z,60.20
2017-10-30T08:19:11.802Z,60.10
2017-10-30T08:21:39.257Z,60.20
2017-10-30T08:24:06.712Z,59.90
2017-10-30T08:26:34.174Z,59.20
2017-10-30T08:29:01.652Z,59.90
2017-10-30T08:31:29.093Z,59.90
2017-10-30T08:33:56.555Z,59.60
2017-10-30T08:36:24.022Z,59.50
2017-10-30T08:38:51.486Z,64.70
2017-10-30T08:41:18.924Z,62.90
2017-10-30T08:43:46.386Z,59.90
2017-10-30T08:46:13.839Z,57.60
2017-10-30T08:48:41.315Z,55.90
2017-10-30T08:51:08.768Z,53.90
2017-10-30T08:53:36.214Z,53.40
2017-10-30T08:56:03.670Z,53.60
2017-10-30T08:58:31.117Z,53.30
2017-10-30T09:00:58.571Z,52.20
2017-10-30T09:03:26.060Z,53.70
2017-10-30T09:05:53.531Z,51.30
2017-10-30T09:08:21.004Z,49.20
2017-10-30T09:10:49.226Z,46.30
2017-10-30T09:13:16.690Z,46.20
2017-10-30T09:15:44.171Z,45.00
2017-10-30T09:18:11.630Z,44.20
2017-10-30T09:20:39.084Z,43.40
2017-10-30T09:23:06.538Z,42.60
2017-10-30T09:25:34.006Z,41.50
2017-10-30T09:28:01.466Z,40.90
2017-10-30T09:30:30.444Z,39.90
2017-10-30T09:32:57.890Z,39.90
2017-10-30T09:35:25.390Z,39.50
2017-10-30T09:37:53.618Z,39.10
2017-10-30T09:40:21.090Z,39.00
2017-10-30T09:42:48.546Z,38.00
2017-10-30T09:45:16.124Z,37.70
2017-10-30T09:47:43.578Z,37.80
2017-10-30T09:50:11.035Z,37.60
2017-10-30T09:52:39.261Z,39.20
2017-10-30T09:55:06.733Z,39.80
2017-10-30T09:57:34.965Z,40.40
2017-10-30T10:00:03.241Z,40.40
2017-10-30T10:02:31.478Z,39.10
2017-10-30T10:04:58.989Z,39.00
2017-10-30T10:07:27.269Z,36.20
2017-10-30T10:09:54.713Z,36.20
2017-10-30T10:12:23.037Z,35.50
2017-10-30T10:14:50.493Z,35.50
2017-10-30T10:17:18.835Z,34.20
2017-10-30T10:19:46.290Z,33.70
2017-10-30T10:22:13.751Z,33.80
2017-10-30T10:24:41.199Z,33.70
2017-10-30T10:27:08.662Z,33.40
2017-10-30T10:29:37.081Z,32.90
2017-10-30T10:32:04.593Z,32.30
2017-10-30T10:34:33.026Z,32.00
2017-10-30T10:37:00.520Z,32.70
2017-10-30T10:39:27.997Z,34.00
2017-10-30T10:41:55.555Z,35.20
2017-10-30T10:44:23.014Z,35.30
2017-10-30T10:46:50.469Z,34.20
2017-10-30T10:49:18.718Z,36.50
2017-10-30T10:51:46.179Z,36.50
2017-10-30T10:54:13.642Z,38.10
2017-10-30T10:56:41.879Z,40.30
2017-10-30T10:59:09.366Z,40.40
2017-10-30T11:01:38.363Z,41.50
2017-10-30T11:04:05.841Z,41.40
2017-10-30T11:06:33.303Z,41.80
2017-10-30T11:09:00.769Z,40.90
2017-10-30T11:11:28.213Z,39.40
2017-10-30T11:13:55.687Z,38.40
2017-10-30T11:16:23.138Z,38.80
2017-10-30T11:18:51.804Z,38.40
2017-10-30T11:21:20.062Z,40.80
2017-10-30T11:23:47.527Z,40.70
2017-10-30T11:26:15.759Z,42.80
2017-10-30T11:28:43.446Z,42.80
2017-10-30T11:31:10.946Z,43.80
2017-10-30T11:33:38.422Z,44.40
2017-10-30T11:36:06.002Z,45.20
2017-10-30T11:38:33.489Z,45.80
2017-10-30T11:41:00.980Z,46.20
2017-10-30T11:43:28.426Z,46.50
2017-10-30T11:45:55.913Z,46.70
2017-10-30T11:48:23.357Z,46.40
2017-10-30T11:50:50.851Z,43.40
2017-10-30T11:53:18.325Z,41.20
2017-10-30T11:55:45.821Z,38.90
2017-10-30T11:58:14.048Z,36.20
2017-10-30T12:00:41.527Z,36.00
2017-10-30T12:03:09.730Z,34.10
2017-10-30T12:05:37.237Z,34.10
2017-10-30T12:08:04.710Z,32.90
2017-10-30T12:10:32.959Z,33.60
2017-10-30T12:13:00.436Z,32.80
2017-10-30T12:15:27.894Z,33.00
2017-10-30T12:17:55.358Z,33.50
2017-10-30T12:20:22.833Z,34.50
2017-10-30T12:22:51.078Z,36.40
2017-10-30T12:25:18.542Z,36.40
2017-10-30T12:27:46.009Z,37.10
2017-10-30T12:30:13.473Z,38.20
2017-10-30T12:32:40.934Z,38.70
2017-10-30T12:35:09.148Z,40.30
2017-10-30T12:37:36.600Z,40.30
2017-10-30T12:40:04.845Z,41.20
2017-10-30T12:42:32.295Z,41.20
2017-10-30T12:44:59.778Z,41.50
2017-10-30T12:47:28.011Z,42.20
2017-10-30T12:49:55.472Z,42.80
2017-10-30T12:52:22.924Z,42.50
2017-10-30T12:54:50.428Z,42.70
2017-10-30T12:57:18.657Z,43.20
2017-10-30T12:59:46.124Z,43.20
2017-10-30T13:02:13.576Z,43.40
2017-10-30T13:04:41.059Z,43.60
2017-10-30T13:07:09.294Z,43.80
2017-10-30T13:09:36.766Z,43.70
2017-10-30T13:12:04.247Z,43.60
2017-10-30T13:14:31.823Z,42.90
2017-10-30T13:16:59.284Z,41.70
2017-10-30T13:19:27.535Z,42.20
2017-10-30T13:21:54.994Z,42.20
2017-10-30T13:24:22.439Z,42.50
2017-10-30T13:26:49.956Z,42.90
2017-10-30T13:29:18.543Z,43.60
2017-10-30T13:31:46.030Z,43.60
2017-10-30T13:34:13.505Z,44.00
2017-10-30T13:36:42.498Z,44.50
2017-10-30T13:39:09.954Z,44.40
2017-10-30T13:41:37.410Z,44.70
2017-10-30T13:44:04.850Z,45.00
2017-10-30T13:46:32.318Z,45.20
2017-10-30T13:48:59.791Z,45.30
2017-10-30T13:51:27.241Z,45.50
2017-10-30T13:53:55.474Z,45.80
2017-10-30T13:56:22.937Z,45.80
2017-10-30T13:58:50.434Z,46.00
2017-10-30T14:01:17.957Z,46.10
2017-10-30T14:03:45.426Z,46.40
2017-10-30T14:06:12.916Z,46.60
2017-10-30T14:08:40.372Z,46.70
2017-10-30T14:11:08.599Z,46.80
2017-10-30T14:13:36.062Z,47.00
2017-10-30T14:16:03.507Z,47.30
2017-10-30T14:18:30.974Z,47.40
2017-10-30T14:20:58.430Z,47.70
2017-10-30T14:23:25.891Z,48.00
2017-10-30T14:25:53.334Z,48.20
2017-10-30T14:28:20.792Z,48.20
2017-10-30T14:30:48.234Z,48.50
2017-10-30T14:33:15.698Z,48.50
2017-10-30T14:35:43.138Z,48.50
2017-10-30T14:38:10.653Z,49.10
2017-10-30T14:40:38.877Z,48.10
2017-10-30T14:43:07.130Z,48.00
2017-10-30T14:45:34.586Z,48.00
2017-10-30T14:48:02.063Z,48.00
2017-10-30T14:50:30.317Z,48.00
2017-10-30T14:52:57.843Z,48.00
2017-10-30T14:55:25.293Z,48.00
2017-10-30T14:57:52.758Z,48.10
2017-10-30T15:00:20.250Z,48.10
2017-10-30T15:02:47.706Z,48.40
2017-10-30T15:05:15.174Z,48.30
2017-10-30T15:07:44.494Z,48.60
2017-10-30T15:10:12.770Z,48.50
2017-10-30T15:12:40.210Z,48.40
2017-10-30T15:15:08.440Z,48.30
2017-10-30T15:17:35.922Z,48.20
2017-10-30T15:20:03.417Z,48.30
2017-10-30T15:22:30.866Z,48.30
2017-10-30T15:24:59.102Z,48.30
2017-10-30T15:27:26.560Z,48.30
2017-10-30T15:29:54.026Z,48.20
2017-10-30T15:32:22.238Z,48.70
2017-10-30T15:34:50.505Z,48.70
2017-10-30T15:37:17.961Z,48.70
2017-10-30T15:39:46.182Z,48.80
2017-10-30T15:42:13.676Z,48.80
2017-10-30T15:44:41.131Z,49.00
2017-10-30T15:47:08.592Z,49.00
2017-10-30T15:49:36.042Z,49.00
2017-10-30T15:52:03.506Z,49.20
2017-10-30T15:54:30.966Z,49.10
2017-10-30T15:56:59.200Z,50.00
2017-10-30T15:59:26.658Z,49.30
2017-10-30T16:01:54.125Z,49.20
2017-10-30T16:04:21.581Z,49.40
2017-10-30T16:06:49.058Z,49.40
2017-10-30T16:09:17.329Z,49.50
2017-10-30T16:11:45.582Z,49.60
2017-10-30T16:14:13.050Z,49.50
2017-10-30T16:16:40.543Z,49.50
2017-10-30T16:19:08.790Z,49.50
2017-10-30T16:21:36.268Z,49.50
2017-10-30T16:24:03.726Z,49.60
2017-10-30T16:26:31.177Z,50.40
2017-10-30T16:28:58.637Z,50.00
2017-10-30T16:31:26.082Z,50.20
2017-10-30T16:33:53.549Z,50.70
2017-10-30T16:36:20.999Z,50.80
2017-10-30T16:38:48.490Z,51.00
2017-10-30T16:41:16.003Z,51.40
2017-10-30T16:43:43.459Z,51.40
2017-10-30T16:46:11.021Z,51.60
2017-10-30T16:48:38.524Z,51.60
2017-10-30T16:51:06.765Z,51.90
2017-10-30T16:53:34.234Z,51.80
2017-10-30T16:56:01.727Z,52.10
2017-10-30T16:58:29.220Z,52.10
2017-10-30T17:00:56.687Z,52.20
2017-10-30T17:03:24.162Z,52.30
2017-10-30T17:05:51.625Z,52.50
2017-10-30T17:08:19.098Z,52.50
2017-10-30T17:10:47.727Z,52.70
2017-10-30T17:13:15.222Z,52.60
2017-10-30T17:15:42.694Z,52.80
2017-10-30T17:18:10.929Z,53.60
2017-10-30T17:20:38.393Z,53.00
2017-10-30T17:23:05.843Z,53.10
2017-10-30T17:25:33.323Z,53.20
2017-10-30T17:28:00.801Z,53.20
2017-10-30T17:30:29.042Z,53.20
2017-10-30T17:32:56.506Z,53.10
2017-10-30T17:35:27.107Z,53.20
2017-10-30T17:37:54.598Z,53.20
2017-10-30T17:40:22.070Z,53.20
2017-10-30T17:42:50.294Z,53.10
2017-10-30T17:45:17.782Z,53.10
2017-10-30T17:47:45.246Z,53.10
2017-10-30T17:50:12.717Z,53.20
2017-10-30T17:52:40.179Z,53.20
2017-10-30T17:55:07.637Z,53.30
2017-10-30T17:57:35.884Z,53.40
2017-10-30T18:00:03.359Z,53.40
2017-10-30T18:02:30.811Z,53.40
2017-10-30T18:04:58.288Z,53.60
2017-10-30T18:07:26.514Z,53.60
2017-10-30T18:09:54.734Z,53.80
2017-10-30T18:12:22.234Z,53.70
2017-10-30T18:14:49.680Z,53.80
2017-10-30T18:17:17.921Z,53.90
2017-10-30T18:19:46.164Z,54.00
2017-10-30T18:22:19.230Z,54.00
2017-10-30T18:24:46.706Z,54.00
2017-10-30T18:27:14.163Z,54.10
2017-10-30T18:29:41.626Z,54.10
2017-10-30T18:32:09.112Z,53.90
2017-10-30T18:34:36.604Z,54.20
2017-10-30T18:37:04.071Z,54.10
2017-10-30T18:39:31.517Z,54.20
2017-10-30T18:41:59.082Z,54.30
2017-10-30T18:44:26.537Z,54.40
2017-10-30T18:46:54.019Z,54.30
2017-10-30T18:49:21.482Z,54.20
2017-10-30T18:51:48.950Z,54.20
2017-10-30T18:54:16.425Z,54.20
2017-10-30T18:56:43.998Z,54.20
2017-10-30T18:59:11.515Z,54.20
2017-10-30T19:01:39.731Z,54.20
2017-10-30T19:04:07.189Z,54.20
2017-10-30T19:06:34.693Z,54.20
2017-10-30T19:09:02.150Z,54.30
2017-10-30T19:11:29.621Z,54.20
2017-10-30T19:13:57.077Z,54.30
2017-10-30T19:16:25.306Z,54.20
2017-10-30T19:18:52.773Z,54.10
2017-10-30T19:21:21.153Z,54.00
2017-10-30T19:23:49.370Z,54.30
2017-10-30T19:26:16.823Z,54.20
2017-10-30T19:28:44.298Z,54.20
2017-10-30T19:31:11.748Z,54.10
2017-10-30T19:33:39.209Z,54.20
2017-10-30T19:36:06.659Z,54.00
2017-10-30T19:38:34.111Z,53.80
2017-10-30T19:41:01.561Z,53.60
2017-10-30T19:43:30.014Z,53.50
2017-10-30T19:45:57.469Z,53.10
2017-10-30T19:48:25.691Z,52.80
2017-10-30T19:50:53.141Z,52.80
2017-10-30T19:53:20.595Z,52.50
2017-10-30T19:55:48.063Z,52.70
2017-10-30T19:58:15.534Z,52.50
2017-10-30T20:00:43.015Z,52.30
2017-10-30T20:03:10.450Z,52.20
2017-10-30T20:05:43.510Z,52.30
2017-10-30T20:08:16.602Z,52.30
2017-10-30T20:10:49.789Z,52.50
2017-10-30T20:13:17.250Z,52.60
2017-10-30T20:15:44.714Z,52.60
2017-10-30T20:18:12.163Z,52.80
2017-10-30T20:20:39.636Z,53.00
2017-10-30T20:23:07.130Z,53.00
2017-10-30T20:25:34.689Z,53.00
2017-10-30T20:28:02.933Z,53.30
2017-10-30T20:30:30.393Z,53.20
2017-10-30T20:32:57.875Z,53.40
2017-10-30T20:35:25.347Z,53.50
2017-10-30T20:37:53.583Z,53.60
2017-10-30T20:40:21.046Z,53.60
2017-10-30T20:42:48.526Z,53.70
2017-10-30T20:45:15.982Z,53.60
2017-10-30T20:47:44.238Z,53.60
2017-10-30T20:50:11.725Z,53.60
2017-10-30T20:52:39.966Z,53.80
2017-10-30T20:55:07.417Z,53.80
2017-10-30T20:57:34.895Z,53.80
2017-10-30T21:00:03.161Z,54.20
2017-10-30T21:02:30.618Z,54.40
2017-10-30T21:04:58.846Z,53.70
2017-10-30T21:07:26.325Z,53.70
2017-10-30T21:09:53.796Z,53.70
2017-10-30T21:12:21.272Z,53.80
2017-10-30T21:14:48.728Z,53.80
2017-10-30T21:17:16.819Z,53.60
2017-10-30T21:19:44.270Z,53.70
2017-10-30T21:22:11.738Z,53.80
2017-10-30T21:24:39.195Z,54.00
2017-10-30T21:27:07.462Z,53.80
2017-10-30T21:29:36.790Z,53.90
2017-10-30T21:32:05.047Z,53.90
2017-10-30T21:34:32.508Z,53.80
2017-10-30T21:37:00.735Z,53.90
2017-10-30T21:39:28.198Z,53.90
2017-10-30T21:41:55.653Z,53.80
2017-10-30T21:44:23.126Z,54.00
2017-10-30T21:46:50.588Z,54.00
2017-10-30T21:49:18.072Z,54.00
2017-10-30T21:51:45.549Z,53.90
2017-10-30T21:54:13.797Z,53.90
2017-10-30T21:56:42.026Z,54.00
2017-10-30T21:59:09.503Z,54.00
2017-10-30T22:01:36.963Z,54.10
2017-10-30T22:04:04.430Z,54.60
2017-10-30T22:06:31.877Z,54.60
2017-10-30T22:08:59.525Z,54.40
2017-10-30T22:11:28.015Z,54.60
2017-10-30T22:13:55.502Z,54.60
2017-10-30T22:16:22.955Z,54.70
2017-10-30T22:18:50.514Z,54.70
2017-10-30T22:21:17.969Z,54.60
2017-10-30T22:23:45.416Z,54.60
2017-10-30T22:26:12.883Z,54.70
2017-10-30T22:28:40.330Z,54.60
2017-10-30T22:31:07.794Z,55.30
2017-10-30T22:33:35.254Z,54.70
2017-10-30T22:36:02.722Z,54.70
2017-10-30T22:38:30.513Z,54.80
2017-10-30T22:40:58.780Z,54.70
2017-10-30T22:43:26.234Z,54.70
2017-10-30T22:45:54.529Z,54.70
2017-10-30T22:48:22.041Z,54.70
2017-10-30T22:50:49.518Z,54.80
2017-10-30T22:53:17.771Z,55.20
2017-10-30T22:55:45.229Z,55.20
2017-10-30T22:58:12.690Z,55.20
2017-10-30T23:00:40.149Z,55.20
2017-10-30T23:03:07.645Z,55.30
2017-10-30T23:05:35.095Z,55.10
2017-10-30T23:08:02.559Z,55.10
2017-10-30T23:10:30.012Z,55.10
2017-10-30T23:12:57.532Z,55.10
2017-10-30T23:15:25.162Z,55.20
2017-10-30T23:17:52.790Z,55.30
2017-10-30T23:20:21.249Z,55.20
2017-10-30T23:22:48.707Z,55.20
2017-10-30T23:25:16.158Z,55.30
2017-10-30T23:27:43.614Z,55.20
2017-10-30T23:30:11.107Z,55.10
2017-10-30T23:32:38.572Z,55.20
2017-10-30T23:35:06.157Z,55.30
2017-10-30T23:37:33.605Z,55.20
2017-10-30T23:40:01.066Z,55.20
2017-10-30T23:42:28.529Z,55.30
2017-10-30T23:44:55.998Z,55.10
2017-10-30T23:47:23.478Z,55.20
2017-10-30T23:49:51.729Z,55.10
2017-10-30T23:52:19.185Z,55.10
2017-10-30T23:54:46.658Z,55.10
2017-10-30T23:57:14.116Z,55.00
2017-10-30T23:59:41.585Z,55.00
